Haines Falls, NY (12436)

8:06 PM EST on February 05, 2016 (GMT -0500)
KNYHAINE2 | | Change Station
CLOSE
Current Station
Personal Weather Station
Location: Haines Falls, NY
Elevation: 2010 ft
Nearby Weather Stations

Elev 2010 ft 42.20 °N, 74.10 °W | Updated 159 days ago

Clear
Clear
24 °F
Feels Like 16 °F
N
8
Wind Variable Wind from NW
Gusts 14 mph

Today
High -- | Low -- °F
--% Chance of Precip.
Yesterday
High -- | Low -- °F
Precip. -- in
Pressure 30.26 in
Visibility 10.0 miles
Clouds Clear
Windchill 16 °F
Dew Point 13 °F
Humidity 64%
Rainfall in
Snow Depth Not available.
7:05 AM 5:15 PM
Waning Crescent, 8% visible
METAR KPOU 060053Z 31009KT 10SM CLR 02/M13 A3026 RMK AO2 SLP246 T00171128
Pressure 30.26 in
Visibility 10.0 miles
Clouds Clear
Windchill 16 °F
Dew Point 13 °F
Humidity 64%
Rainfall in
Snow Depth Not available.
7:05 AM 5:15 PM
Waning Crescent, 8% visible
METAR KPOU 060053Z 31009KT 10SM CLR 02/M13 A3026 RMK AO2 SLP246 T00171128

10-Day Weather Forecast

Almanac

Astronomy

Feb. 05, 2016 Rise Set
Actual Time
Civil Twilight
Nautical Twilight
Astronomical Twilight
Moon
Length of Visible Light
Length of Day
Tomorrow will be .
, % of the Moon is Illuminated

Today's Extremes

State Highs State Lows

Community

WunderPhotos

Upload Photos

1,890,902 photos uploaded!

WunderBlog® & News

Nearby

Air Quality

  Air Quality AQ Index Pollutant
Not available.

Snow Depth

Station Depth Elevation

Earthquake Activity

City Distance Mag. Time & Date
Minimum magnitude displayed is 2.5.

Coastal Water Temperatures

Place Temperature

Stations

Nearby Weather Stations

Station Location Temp. Windchill Dew Point Humidity Wind Precip. Elev Updated Type
                   

Watches & Warnings

There are currently no watches in effect.